sensor_id;sensor_type;location;lat;lon;timestamp;pressure;altitude;pressure_sealevel;temperature;humidity
62978;BME280;49073;42.352;23.808;2023-12-20T00:00:11;95003.25;;;-1.61;95.19
62978;BME280;49073;42.352;23.808;2023-12-20T00:03:12;95001.69;;;-1.62;95.80
62978;BME280;49073;42.352;23.808;2023-12-20T00:06:12;95003.78;;;-1.64;95.43
62978;BME280;49073;42.352;23.808;2023-12-20T00:09:13;94999.38;;;-1.73;95.32
62978;BME280;49073;42.352;23.808;2023-12-20T00:12:13;95007.16;;;-1.63;96.04
62978;BME280;49073;42.352;23.808;2023-12-20T00:15:14;94999.06;;;-1.56;95.55
62978;BME280;49073;42.352;23.808;2023-12-20T00:18:15;95001.66;;;-1.56;95.96
62978;BME280;49073;42.352;23.808;2023-12-20T00:21:17;94999.31;;;-1.58;96.23
62978;BME280;49073;42.352;23.808;2023-12-20T00:24:17;94985.16;;;-1.52;95.33
62978;BME280;49073;42.352;23.808;2023-12-20T00:27:18;94982.91;;;-1.69;94.54
62978;BME280;49073;42.352;23.808;2023-12-20T00:30:19;94979.22;;;-1.63;94.31
62978;BME280;49073;42.352;23.808;2023-12-20T00:33:19;94976.59;;;-1.57;94.42
62978;BME280;49073;42.352;23.808;2023-12-20T00:36:21;94975.56;;;-1.62;94.71
62978;BME280;49073;42.352;23.808;2023-12-20T00:39:21;94970.88;;;-1.65;95.03
62978;BME280;49073;42.352;23.808;2023-12-20T00:42:22;94963.25;;;-1.61;94.54
62978;BME280;49073;42.352;23.808;2023-12-20T00:45:22;94958.81;;;-1.61;94.76
62978;BME280;49073;42.352;23.808;2023-12-20T00:48:23;94966.69;;;-1.66;96.32
62978;BME280;49073;42.352;23.808;2023-12-20T00:51:23;94963.59;;;-1.73;95.00
62978;BME280;49073;42.352;23.808;2023-12-20T00:54:24;94958.34;;;-1.78;94.75
62978;BME280;49073;42.352;23.808;2023-12-20T00:57:25;94950.53;;;-1.83;94.65
62978;BME280;49073;42.352;23.808;2023-12-20T01:00:25;94947.16;;;-1.84;94.54
62978;BME280;49073;42.352;23.808;2023-12-20T01:03:26;94945.28;;;-1.78;94.73
62978;BME280;49073;42.352;23.808;2023-12-20T01:06:26;94939.31;;;-1.84;94.51
62978;BME280;49073;42.352;23.808;2023-12-20T01:09:27;94940.13;;;-1.94;94.22
62978;BME280;49073;42.352;23.808;2023-12-20T01:12:28;94930.94;;;-1.81;95.16
62978;BME280;49073;42.352;23.808;2023-12-20T01:15:28;94925.97;;;-1.82;94.89
62978;BME280;49073;42.352;23.808;2023-12-20T01:18:29;94923.91;;;-1.85;94.66
62978;BME280;49073;42.352;23.808;2023-12-20T01:21:30;94930.19;;;-1.92;95.23
62978;BME280;49073;42.352;23.808;2023-12-20T01:24:30;94920.59;;;-2.01;94.84
62978;BME280;49073;42.352;23.808;2023-12-20T01:27:31;94903.91;;;-2.06;94.97
62978;BME280;49073;42.352;23.808;2023-12-20T01:30:31;94910.94;;;-2.06;95.29
62978;BME280;49073;42.352;23.808;2023-12-20T01:33:32;94904.41;;;-2.09;94.90
62978;BME280;49073;42.352;23.808;2023-12-20T01:36:32;94894.25;;;-2.10;94.82
62978;BME280;49073;42.352;23.808;2023-12-20T01:39:33;94892.66;;;-2.06;95.55
62978;BME280;49073;42.352;23.808;2023-12-20T01:42:33;94893.44;;;-2.00;95.75
62978;BME280;49073;42.352;23.808;2023-12-20T01:45:34;94890.03;;;-2.01;94.84
62978;BME280;49073;42.352;23.808;2023-12-20T01:48:35;94881.66;;;-1.98;95.21
62978;BME280;49073;42.352;23.808;2023-12-20T01:51:36;94883.25;;;-2.07;95.15
62978;BME280;49073;42.352;23.808;2023-12-20T01:54:37;94876.19;;;-2.01;94.76
62978;BME280;49073;42.352;23.808;2023-12-20T01:57:40;94866.81;;;-2.02;94.87
62978;BME280;49073;42.352;23.808;2023-12-20T02:00:42;94861.78;;;-1.94;94.46
62978;BME280;49073;42.352;23.808;2023-12-20T02:03:43;94864.41;;;-1.94;94.09
62978;BME280;49073;42.352;23.808;2023-12-20T02:06:45;94852.94;;;-2.03;94.24
62978;BME280;49073;42.352;23.808;2023-12-20T02:09:46;94851.66;;;-2.00;94.90
62978;BME280;49073;42.352;23.808;2023-12-20T02:12:47;94843.03;;;-2.06;94.69
62978;BME280;49073;42.352;23.808;2023-12-20T02:15:47;94842.47;;;-1.98;94.64
62978;BME280;49073;42.352;23.808;2023-12-20T02:18:48;94840.97;;;-2.09;94.99
62978;BME280;49073;42.352;23.808;2023-12-20T02:21:49;94829.41;;;-1.98;95.04
62978;BME280;49073;42.352;23.808;2023-12-20T02:24:49;94825.53;;;-2.00;95.18
62978;BME280;49073;42.352;23.808;2023-12-20T02:27:50;94821.72;;;-2.24;94.25
62978;BME280;49073;42.352;23.808;2023-12-20T02:30:51;94819.06;;;-2.13;94.91
62978;BME280;49073;42.352;23.808;2023-12-20T02:33:51;94813.28;;;-2.05;95.25
62978;BME280;49073;42.352;23.808;2023-12-20T02:36:52;94813.28;;;-2.05;94.96
62978;BME280;49073;42.352;23.808;2023-12-20T02:39:52;94811.72;;;-2.06;94.51
62978;BME280;49073;42.352;23.808;2023-12-20T02:42:53;94812.75;;;-2.07;94.29
62978;BME280;49073;42.352;23.808;2023-12-20T02:45:53;94813.81;;;-2.08;95.98
62978;BME280;49073;42.352;23.808;2023-12-20T02:48:53;94809.41;;;-2.18;94.90
62978;BME280;49073;42.352;23.808;2023-12-20T02:51:54;94809.72;;;-2.25;94.36
62978;BME280;49073;42.352;23.808;2023-12-20T02:54:55;94806.84;;;-2.28;94.78
62978;BME280;49073;42.352;23.808;2023-12-20T02:57:55;94805.00;;;-2.23;95.06
62978;BME280;49073;42.352;23.808;2023-12-20T03:00:56;94807.63;;;-2.23;96.40
62978;BME280;49073;42.352;23.808;2023-12-20T03:03:56;94804.69;;;-2.16;94.82
62978;BME280;49073;42.352;23.808;2023-12-20T03:06:57;94801.09;;;-2.25;94.79
62978;BME280;49073;42.352;23.808;2023-12-20T03:09:58;94796.44;;;-2.34;94.90
62978;BME280;49073;42.352;23.808;2023-12-20T03:12:59;94802.47;;;-2.49;94.48
62978;BME280;49073;42.352;23.808;2023-12-20T03:15:59;94796.75;;;-2.51;95.56
62978;BME280;49073;42.352;23.808;2023-12-20T03:18:59;94795.69;;;-2.44;96.04
62978;BME280;49073;42.352;23.808;2023-12-20T03:22:00;94788.91;;;-2.45;95.94
62978;BME280;49073;42.352;23.808;2023-12-20T03:25:01;94790.91;;;-2.22;96.42
62978;BME280;49073;42.352;23.808;2023-12-20T03:28:01;94796.66;;;-2.25;95.01
62978;BME280;49073;42.352;23.808;2023-12-20T03:31:02;94801.97;;;-2.51;94.81
62978;BME280;49073;42.352;23.808;2023-12-20T03:34:03;94791.50;;;-2.40;95.55
62978;BME280;49073;42.352;23.808;2023-12-20T03:37:03;94795.91;;;-2.36;95.69
62978;BME280;49073;42.352;23.808;2023-12-20T03:40:04;94799.34;;;-2.45;94.96
62978;BME280;49073;42.352;23.808;2023-12-20T03:43:05;94783.72;;;-2.51;94.96
62978;BME280;49073;42.352;23.808;2023-12-20T03:46:08;94788.16;;;-2.51;95.64
62978;BME280;49073;42.352;23.808;2023-12-20T03:49:09;94785.03;;;-2.53;94.96
62978;BME280;49073;42.352;23.808;2023-12-20T03:52:09;94779.03;;;-2.59;94.95
62978;BME280;49073;42.352;23.808;2023-12-20T03:55:10;94767.00;;;-2.50;95.30
62978;BME280;49073;42.352;23.808;2023-12-20T03:58:10;94768.59;;;-2.54;95.25
62978;BME280;49073;42.352;23.808;2023-12-20T04:01:11;94768.88;;;-2.55;96.43
62978;BME280;49073;42.352;23.808;2023-12-20T04:04:13;94771.69;;;-2.46;97.55
62978;BME280;49073;42.352;23.808;2023-12-20T04:07:14;94769.03;;;-2.31;99.71
62978;BME280;49073;42.352;23.808;2023-12-20T04:10:15;94765.81;;;-2.17;95.93
62978;BME280;49073;42.352;23.808;2023-12-20T04:13:15;94763.00;;;-2.31;94.69
62978;BME280;49073;42.352;23.808;2023-12-20T04:16:16;94755.72;;;-2.35;94.69
62978;BME280;49073;42.352;23.808;2023-12-20T04:19:16;94752.34;;;-2.35;94.55
62978;BME280;49073;42.352;23.808;2023-12-20T04:22:18;94750.56;;;-2.45;93.31
62978;BME280;49073;42.352;23.808;2023-12-20T04:25:19;94758.09;;;-2.43;93.87
62978;BME280;49073;42.352;23.808;2023-12-20T04:28:20;94760.75;;;-2.54;93.58
62978;BME280;49073;42.352;23.808;2023-12-20T04:31:20;94759.72;;;-2.53;94.04
62978;BME280;49073;42.352;23.808;2023-12-20T04:34:23;94750.09;;;-2.68;94.26
62978;BME280;49073;42.352;23.808;2023-12-20T04:37:23;94752.72;;;-2.68;94.09
62978;BME280;49073;42.352;23.808;2023-12-20T04:40:24;94747.78;;;-2.69;94.39
62978;BME280;49073;42.352;23.808;2023-12-20T04:43:24;94736.31;;;-2.68;94.86
62978;BME280;49073;42.352;23.808;2023-12-20T04:46:25;94739.47;;;-2.76;94.88
62978;BME280;49073;42.352;23.808;2023-12-20T04:49:25;94732.41;;;-2.76;95.12
62978;BME280;49073;42.352;23.808;2023-12-20T04:52:26;94735.28;;;-2.72;94.91
62978;BME280;49073;42.352;23.808;2023-12-20T04:55:26;94728.00;;;-2.75;94.71
62978;BME280;49073;42.352;23.808;2023-12-20T04:58:27;94728.78;;;-2.80;94.02
62978;BME280;49073;42.352;23.808;2023-12-20T05:01:27;94725.41;;;-2.86;93.94
62978;BME280;49073;42.352;23.808;2023-12-20T05:04:28;94721.53;;;-2.94;93.72
62978;BME280;49073;42.352;23.808;2023-12-20T05:07:28;94719.69;;;-2.88;94.65
62978;BME280;49073;42.352;23.808;2023-12-20T05:10:29;94714.47;;;-2.83;94.60
62978;BME280;49073;42.352;23.808;2023-12-20T05:13:30;94721.78;;;-2.95;95.17
62978;BME280;49073;42.352;23.808;2023-12-20T05:16:30;94721.78;;;-2.95;95.36
62978;BME280;49073;42.352;23.808;2023-12-20T05:19:30;94717.94;;;-3.08;94.51
62978;BME280;49073;42.352;23.808;2023-12-20T05:22:31;94719.22;;;-3.11;94.90
62978;BME280;49073;42.352;23.808;2023-12-20T05:25:31;94712.97;;;-3.10;95.22
62978;BME280;49073;42.352;23.808;2023-12-20T05:28:32;94719.00;;;-3.19;95.13
62978;BME280;49073;42.352;23.808;2023-12-20T05:31:33;94705.66;;;-3.13;95.31
62978;BME280;49073;42.352;23.808;2023-12-20T05:34:33;94710.66;;;-3.16;95.25
62978;BME280;49073;42.352;23.808;2023-12-20T05:37:34;94704.41;;;-3.20;95.87
62978;BME280;49073;42.352;23.808;2023-12-20T05:40:34;94697.88;;;-3.18;95.63
62978;BME280;49073;42.352;23.808;2023-12-20T05:43:35;94694.72;;;-3.10;96.22
62978;BME280;49073;42.352;23.808;2023-12-20T05:46:35;94689.00;;;-3.12;95.67
62978;BME280;49073;42.352;23.808;2023-12-20T05:49:36;94683.50;;;-3.05;96.00
62978;BME280;49073;42.352;23.808;2023-12-20T05:52:37;94684.53;;;-3.01;95.27
62978;BME280;49073;42.352;23.808;2023-12-20T05:55:37;94686.91;;;-3.10;94.71
62978;BME280;49073;42.352;23.808;2023-12-20T05:58:38;94675.44;;;-3.14;94.94
62978;BME280;49073;42.352;23.808;2023-12-20T06:01:40;94674.88;;;-3.05;95.69
62978;BME280;49073;42.352;23.808;2023-12-20T06:04:42;94670.69;;;-3.01;95.84
62978;BME280;49073;42.352;23.808;2023-12-20T06:07:44;94665.50;;;-3.07;97.34
62978;BME280;49073;42.352;23.808;2023-12-20T06:10:47;94668.59;;;-2.99;97.32
62978;BME280;49073;42.352;23.808;2023-12-20T06:13:47;94666.56;;;-3.08;96.64
62978;BME280;49073;42.352;23.808;2023-12-20T06:16:49;94666.03;;;-3.04;97.30
62978;BME280;49073;42.352;23.808;2023-12-20T06:19:55;94659.19;;;-2.95;97.08
62978;BME280;49073;42.352;23.808;2023-12-20T06:22:55;94655.28;;;-2.87;97.40
62978;BME280;49073;42.352;23.808;2023-12-20T06:25:56;94665.94;;;-2.79;98.72
62978;BME280;49073;42.352;23.808;2023-12-20T06:28:56;94654.97;;;-2.75;98.04
62978;BME280;49073;42.352;23.808;2023-12-20T06:31:57;94658.81;;;-2.63;98.99
62978;BME280;49073;42.352;23.808;2023-12-20T06:34:57;94659.72;;;-2.38;99.36
62978;BME280;49073;42.352;23.808;2023-12-20T06:40:52;94658.31;;;-2.25;99.53
62978;BME280;49073;42.352;23.808;2023-12-20T06:43:53;94660.47;;;-1.97;100.00
62978;BME280;49073;42.352;23.808;2023-12-20T06:46:53;94657.44;;;-1.75;100.00
62978;BME280;49073;42.352;23.808;2023-12-20T06:49:54;94653.38;;;-1.62;99.90
62978;BME280;49073;42.352;23.808;2023-12-20T06:52:54;94650.94;;;-1.53;99.59
62978;BME280;49073;42.352;23.808;2023-12-20T06:55:55;94648.78;;;-1.46;99.18
62978;BME280;49073;42.352;23.808;2023-12-20T06:58:56;94649.66;;;-1.56;99.62
62978;BME280;49073;42.352;23.808;2023-12-20T07:01:57;94653.25;;;-1.47;99.36
62978;BME280;49073;42.352;23.808;2023-12-20T07:04:57;94650.28;;;-1.40;98.66
62978;BME280;49073;42.352;23.808;2023-12-20T07:07:58;94642.44;;;-1.40;98.29
62978;BME280;49073;42.352;23.808;2023-12-20T07:10:58;94635.41;;;-1.39;98.08
62978;BME280;49073;42.352;23.808;2023-12-20T07:13:59;94638.03;;;-1.39;98.17
62978;BME280;49073;42.352;23.808;2023-12-20T07:16:59;94623.97;;;-1.49;99.65
62978;BME280;49073;42.352;23.808;2023-12-20T07:20:00;94634.84;;;-1.36;100.00
62978;BME280;49073;42.352;23.808;2023-12-20T07:23:03;94634.56;;;-1.35;100.00
62978;BME280;49073;42.352;23.808;2023-12-20T07:26:04;94627.06;;;-1.17;100.00
62978;BME280;49073;42.352;23.808;2023-12-20T07:29:05;94620.94;;;-0.88;100.00
62978;BME280;49073;42.352;23.808;2023-12-20T07:32:05;94622.72;;;-0.64;100.00
62978;BME280;49073;42.352;23.808;2023-12-20T07:35:06;94616.75;;;-0.12;100.00
62978;BME280;49073;42.352;23.808;2023-12-20T07:38:07;94612.94;;;0.13;100.00
62978;BME280;49073;42.352;23.808;2023-12-20T07:41:09;94608.94;;;0.49;100.00
62978;BME280;49073;42.352;23.808;2023-12-20T07:44:10;94617.03;;;0.66;100.00
62978;BME280;49073;42.352;23.808;2023-12-20T07:47:10;94613.03;;;0.83;100.00
62978;BME280;49073;42.352;23.808;2023-12-20T07:50:13;94620.41;;;0.95;98.35
62978;BME280;49073;42.352;23.808;2023-12-20T07:53:13;94610.09;;;1.12;96.66
62978;BME280;49073;42.352;23.808;2023-12-20T07:56:18;94609.25;;;1.03;95.51
62978;BME280;49073;42.352;23.808;2023-12-20T07:59:19;94604.94;;;1.21;95.46
62978;BME280;49073;42.352;23.808;2023-12-20T08:02:20;94602.38;;;1.67;95.59
62978;BME280;49073;42.352;23.808;2023-12-20T08:05:20;94594.53;;;1.98;93.97
62978;BME280;49073;42.352;23.808;2023-12-20T08:08:21;94594.47;;;2.12;92.77
62978;BME280;49073;42.352;23.808;2023-12-20T08:11:21;94587.41;;;2.22;91.35
62978;BME280;49073;42.352;23.808;2023-12-20T08:14:22;94575.41;;;2.29;89.83
62978;BME280;49073;42.352;23.808;2023-12-20T08:17:22;94585.34;;;1.87;89.57
62978;BME280;49073;42.352;23.808;2023-12-20T08:20:23;94577.28;;;1.38;89.38
62978;BME280;49073;42.352;23.808;2023-12-20T08:23:24;94565.81;;;1.34;90.36
62978;BME280;49073;42.352;23.808;2023-12-20T08:26:25;94575.66;;;1.28;90.25
62978;BME280;49073;42.352;23.808;2023-12-20T08:29:26;94576.38;;;1.06;90.98
62978;BME280;49073;42.352;23.808;2023-12-20T08:32:27;94579.59;;;1.02;91.08
62978;BME280;49073;42.352;23.808;2023-12-20T08:35:27;94580.75;;;1.10;91.13
62978;BME280;49073;42.352;23.808;2023-12-20T08:38:27;94566.66;;;1.06;89.65
62978;BME280;49073;42.352;23.808;2023-12-20T08:41:28;94567.16;;;1.08;89.70
62978;BME280;49073;42.352;23.808;2023-12-20T08:44:29;94557.13;;;1.10;89.58
62978;BME280;49073;42.352;23.808;2023-12-20T08:47:30;94558.31;;;1.04;90.39
62978;BME280;49073;42.352;23.808;2023-12-20T08:50:31;94544.66;;;1.16;90.71
62978;BME280;49073;42.352;23.808;2023-12-20T08:53:31;94543.41;;;1.13;90.09
62978;BME280;49073;42.352;23.808;2023-12-20T08:56:32;94546.31;;;1.12;88.35
62978;BME280;49073;42.352;23.808;2023-12-20T08:59:33;94537.84;;;1.15;88.73
62978;BME280;49073;42.352;23.808;2023-12-20T09:02:33;94534.47;;;1.37;88.62
62978;BME280;49073;42.352;23.808;2023-12-20T09:05:36;94517.72;;;1.47;87.54
62978;BME280;49073;42.352;23.808;2023-12-20T09:08:37;94505.44;;;1.56;87.32
62978;BME280;49073;42.352;23.808;2023-12-20T09:11:37;94503.50;;;1.71;86.86
62978;BME280;49073;42.352;23.808;2023-12-20T09:14:38;94486.44;;;1.82;85.55
62978;BME280;49073;42.352;23.808;2023-12-20T09:17:38;94487.78;;;1.80;85.32
62978;BME280;49073;42.352;23.808;2023-12-20T09:20:40;94472.84;;;1.89;85.48
62978;BME280;49073;42.352;23.808;2023-12-20T09:23:40;94460.28;;;2.09;85.04
62978;BME280;49073;42.352;23.808;2023-12-20T09:26:41;94473.44;;;2.17;84.76
62978;BME280;49073;42.352;23.808;2023-12-20T09:29:43;94476.16;;;2.03;85.92
62978;BME280;49073;42.352;23.808;2023-12-20T09:32:45;94474.78;;;2.06;86.10
62978;BME280;49073;42.352;23.808;2023-12-20T09:35:45;94474.19;;;2.09;84.60
62978;BME280;49073;42.352;23.808;2023-12-20T09:38:45;94466.47;;;2.22;84.20
62978;BME280;49073;42.352;23.808;2023-12-20T09:41:57;94451.72;;;2.43;84.53
62978;BME280;49073;42.352;23.808;2023-12-20T09:45:03;94452.09;;;3.03;83.62
62978;BME280;49073;42.352;23.808;2023-12-20T09:48:04;94440.41;;;3.57;81.71
62978;BME280;49073;42.352;23.808;2023-12-20T09:51:04;94440.97;;;3.72;78.10
62978;BME280;49073;42.352;23.808;2023-12-20T09:54:05;94425.72;;;3.95;77.31
62978;BME280;49073;42.352;23.808;2023-12-20T09:57:06;94419.97;;;4.32;78.01
62978;BME280;49073;42.352;23.808;2023-12-20T10:00:07;94423.53;;;4.27;77.46
62978;BME280;49073;42.352;23.808;2023-12-20T10:03:08;94412.53;;;4.25;77.38
62978;BME280;49073;42.352;23.808;2023-12-20T10:06:09;94415.03;;;4.51;77.27
62978;BME280;49073;42.352;23.808;2023-12-20T10:09:11;94401.53;;;4.53;74.80
62978;BME280;49073;42.352;23.808;2023-12-20T10:12:12;94394.38;;;4.54;74.29
62978;BME280;49073;42.352;23.808;2023-12-20T10:15:12;94394.56;;;4.70;74.81
62978;BME280;49073;42.352;23.808;2023-12-20T10:18:13;94388.38;;;4.87;74.42
62978;BME280;49073;42.352;23.808;2023-12-20T10:21:13;94379.25;;;5.18;73.34
62978;BME280;49073;42.352;23.808;2023-12-20T10:24:17;94378.91;;;5.53;73.54
62978;BME280;49073;42.352;23.808;2023-12-20T10:27:18;94359.00;;;5.68;72.82
62978;BME280;49073;42.352;23.808;2023-12-20T10:30:19;94359.56;;;5.99;71.22
62978;BME280;49073;42.352;23.808;2023-12-20T10:33:27;94358.94;;;6.14;72.21
62978;BME280;49073;42.352;23.808;2023-12-20T10:36:35;94351.63;;;6.36;69.76
62978;BME280;49073;42.352;23.808;2023-12-20T10:39:37;94350.50;;;6.37;68.74
62978;BME280;49073;42.352;23.808;2023-12-20T10:42:39;94338.91;;;6.54;67.21
62978;BME280;49073;42.352;23.808;2023-12-20T10:45:42;94329.53;;;6.57;65.70
62978;BME280;49073;42.352;23.808;2023-12-20T10:48:46;94324.03;;;6.49;66.07
62978;BME280;49073;42.352;23.808;2023-12-20T10:51:47;94322.81;;;6.47;65.94
62978;BME280;49073;42.352;23.808;2023-12-20T10:54:49;94321.16;;;6.42;65.50
62978;BME280;49073;42.352;23.808;2023-12-20T10:57:50;94308.50;;;6.35;65.79
62978;BME280;49073;42.352;23.808;2023-12-20T11:00:57;94301.72;;;6.63;65.26
62978;BME280;49073;42.352;23.808;2023-12-20T11:04:00;94294.31;;;6.84;63.90
62978;BME280;49073;42.352;23.808;2023-12-20T11:10:26;94280.44;;;7.04;64.38
62978;BME280;49073;42.352;23.808;2023-12-20T11:13:44;94276.78;;;7.08;63.62
62978;BME280;49073;42.352;23.808;2023-12-20T11:16:48;94269.50;;;7.05;65.36
62978;BME280;49073;42.352;23.808;2023-12-20T11:22:58;94271.47;;;6.92;59.99
62978;BME280;49073;42.352;23.808;2023-12-20T11:25:59;94271.16;;;6.81;57.71
62978;BME280;49073;42.352;23.808;2023-12-20T11:29:30;94265.63;;;6.87;55.42
62978;BME280;49073;42.352;23.808;2023-12-20T11:32:34;94253.53;;;7.02;55.15
62978;BME280;49073;42.352;23.808;2023-12-20T11:35:35;94250.53;;;7.03;57.98
62978;BME280;49073;42.352;23.808;2023-12-20T11:38:37;94245.91;;;7.00;56.93
62978;BME280;49073;42.352;23.808;2023-12-20T11:41:38;94245.16;;;7.16;56.67
62978;BME280;49073;42.352;23.808;2023-12-20T11:44:38;94236.88;;;7.33;55.77
62978;BME280;49073;42.352;23.808;2023-12-20T11:47:38;94241.22;;;7.25;55.79
62978;BME280;49073;42.352;23.808;2023-12-20T11:50:39;94232.50;;;7.41;53.73
62978;BME280;49073;42.352;23.808;2023-12-20T11:53:40;94231.19;;;7.51;53.62
62978;BME280;49073;42.352;23.808;2023-12-20T11:56:42;94220.16;;;7.65;54.20
62978;BME280;49073;42.352;23.808;2023-12-20T11:59:43;94227.97;;;7.57;53.94
62978;BME280;49073;42.352;23.808;2023-12-20T12:02:43;94219.44;;;7.32;55.64
62978;BME280;49073;42.352;23.808;2023-12-20T12:05:54;94218.22;;;6.81;55.73
62978;BME280;49073;42.352;23.808;2023-12-20T12:08:55;94219.78;;;6.54;58.67
62978;BME280;49073;42.352;23.808;2023-12-20T12:11:55;94213.56;;;6.34;58.79
62978;BME280;49073;42.352;23.808;2023-12-20T12:14:56;94203.03;;;6.21;60.40
62978;BME280;49073;42.352;23.808;2023-12-20T12:17:58;94201.59;;;6.24;62.40
62978;BME280;49073;42.352;23.808;2023-12-20T12:21:02;94193.13;;;6.18;63.20
62978;BME280;49073;42.352;23.808;2023-12-20T12:24:07;94194.66;;;5.78;64.12
62978;BME280;49073;42.352;23.808;2023-12-20T12:27:08;94193.22;;;5.68;63.71
62978;BME280;49073;42.352;23.808;2023-12-20T12:30:09;94187.81;;;5.77;64.64
62978;BME280;49073;42.352;23.808;2023-12-20T12:33:10;94179.09;;;5.89;66.88
62978;BME280;49073;42.352;23.808;2023-12-20T12:36:12;94180.34;;;5.67;66.38
62978;BME280;49073;42.352;23.808;2023-12-20T12:39:13;94182.13;;;5.50;67.05
62978;BME280;49073;42.352;23.808;2023-12-20T12:42:15;94183.47;;;5.44;69.71
62978;BME280;49073;42.352;23.808;2023-12-20T12:45:16;94178.06;;;5.28;72.09
62978;BME280;49073;42.352;23.808;2023-12-20T12:48:16;94173.13;;;5.27;72.22
62978;BME280;49073;42.352;23.808;2023-12-20T12:51:18;94170.16;;;5.03;75.73
62978;BME280;49073;42.352;23.808;2023-12-20T12:54:18;94173.44;;;5.25;76.50
62978;BME280;49073;42.352;23.808;2023-12-20T12:57:20;94164.72;;;5.49;77.70
62978;BME280;49073;42.352;23.808;2023-12-20T13:00:22;94159.03;;;5.22;79.35
62978;BME280;49073;42.352;23.808;2023-12-20T13:03:23;94158.03;;;5.15;78.52
62978;BME280;49073;42.352;23.808;2023-12-20T13:06:24;94160.03;;;4.93;78.67
62978;BME280;49073;42.352;23.808;2023-12-20T13:09:25;94165.31;;;4.93;77.90
62978;BME280;49073;42.352;23.808;2023-12-20T13:12:25;94166.09;;;5.18;77.78
62978;BME280;49073;42.352;23.808;2023-12-20T13:15:25;94157.28;;;5.27;78.82
62978;BME280;49073;42.352;23.808;2023-12-20T13:18:26;94158.72;;;5.12;79.65
62978;BME280;49073;42.352;23.808;2023-12-20T13:21:27;94157.81;;;4.95;81.03
62978;BME280;49073;42.352;23.808;2023-12-20T13:24:28;94163.00;;;5.04;80.06
62978;BME280;49073;42.352;23.808;2023-12-20T13:27:29;94150.47;;;5.13;80.41
62978;BME280;49073;42.352;23.808;2023-12-20T13:30:30;94147.91;;;5.17;80.34
62978;BME280;49073;42.352;23.808;2023-12-20T13:33:30;94152.75;;;5.15;80.28
62978;BME280;49073;42.352;23.808;2023-12-20T13:36:31;94147.25;;;5.07;80.32
62978;BME280;49073;42.352;23.808;2023-12-20T13:39:31;94141.56;;;4.93;81.02
62978;BME280;49073;42.352;23.808;2023-12-20T13:42:32;94149.25;;;4.73;83.76
62978;BME280;49073;42.352;23.808;2023-12-20T13:45:32;94146.13;;;4.59;84.07
62978;BME280;49073;42.352;23.808;2023-12-20T13:48:33;94138.09;;;4.43;84.77
62978;BME280;49073;42.352;23.808;2023-12-20T13:51:33;94131.00;;;4.34;86.04
62978;BME280;49073;42.352;23.808;2023-12-20T13:54:34;94136.19;;;4.31;86.58
62978;BME280;49073;42.352;23.808;2023-12-20T13:57:35;94137.25;;;4.17;85.99
62978;BME280;49073;42.352;23.808;2023-12-20T14:00:38;94134.75;;;4.00;86.76
62978;BME280;49073;42.352;23.808;2023-12-20T14:03:38;94131.22;;;3.96;87.71
62978;BME280;49073;42.352;23.808;2023-12-20T14:06:40;94135.66;;;3.83;88.34
62978;BME280;49073;42.352;23.808;2023-12-20T14:09:41;94134.84;;;3.70;89.39
62978;BME280;49073;42.352;23.808;2023-12-20T14:12:45;94133.25;;;3.56;88.68
62978;BME280;49073;42.352;23.808;2023-12-20T14:15:46;94138.34;;;3.61;88.11
62978;BME280;49073;42.352;23.808;2023-12-20T14:18:47;94125.53;;;3.51;87.74
62978;BME280;49073;42.352;23.808;2023-12-20T14:21:47;94120.19;;;3.39;88.35
62978;BME280;49073;42.352;23.808;2023-12-20T14:24:48;94130.41;;;3.40;87.48
62978;BME280;49073;42.352;23.808;2023-12-20T14:27:49;94131.19;;;3.41;87.54
62978;BME280;49073;42.352;23.808;2023-12-20T14:30:49;94123.03;;;3.33;87.59
62978;BME280;49073;42.352;23.808;2023-12-20T14:33:50;94126.47;;;3.25;87.83
62978;BME280;49073;42.352;23.808;2023-12-20T14:36:53;94131.78;;;2.95;89.33
62978;BME280;49073;42.352;23.808;2023-12-20T14:39:54;94126.31;;;3.00;89.65
62978;BME280;49073;42.352;23.808;2023-12-20T14:42:55;94133.91;;;2.93;90.15
62978;BME280;49073;42.352;23.808;2023-12-20T14:45:55;94136.47;;;2.81;90.61
62978;BME280;49073;42.352;23.808;2023-12-20T14:48:56;94128.53;;;2.89;90.48
62978;BME280;49073;42.352;23.808;2023-12-20T14:51:56;94134.56;;;2.90;89.54
62978;BME280;49073;42.352;23.808;2023-12-20T14:54:57;94131.47;;;2.88;89.68
62978;BME280;49073;42.352;23.808;2023-12-20T14:57:57;94132.44;;;2.83;89.77
62978;BME280;49073;42.352;23.808;2023-12-20T15:00:58;94131.28;;;2.63;90.13
62978;BME280;49073;42.352;23.808;2023-12-20T15:03:58;94132.22;;;2.58;91.08
62978;BME280;49073;42.352;23.808;2023-12-20T15:06:59;94137.41;;;2.37;90.94
62978;BME280;49073;42.352;23.808;2023-12-20T15:10:01;94128.88;;;2.40;91.72
62978;BME280;49073;42.352;23.808;2023-12-20T15:13:01;94136.50;;;2.24;91.92
62978;BME280;49073;42.352;23.808;2023-12-20T15:16:03;94132.00;;;2.25;92.58
62978;BME280;49073;42.352;23.808;2023-12-20T15:19:05;94141.13;;;2.18;93.08
62978;BME280;49073;42.352;23.808;2023-12-20T15:22:06;94138.81;;;2.26;92.14
62978;BME280;49073;42.352;23.808;2023-12-20T15:25:07;94129.38;;;2.25;92.06
62978;BME280;49073;42.352;23.808;2023-12-20T15:28:09;94132.78;;;2.16;92.65
62978;BME280;49073;42.352;23.808;2023-12-20T15:31:11;94135.28;;;2.04;93.20
62978;BME280;49073;42.352;23.808;2023-12-20T15:34:13;94136.22;;;2.08;92.87
62978;BME280;49073;42.352;23.808;2023-12-20T15:37:14;94146.56;;;2.04;93.32
62978;BME280;49073;42.352;23.808;2023-12-20T15:40:14;94141.63;;;1.94;94.14
62978;BME280;49073;42.352;23.808;2023-12-20T15:43:15;94144.25;;;2.03;94.31
62978;BME280;49073;42.352;23.808;2023-12-20T15:46:16;94146.88;;;2.03;94.40
62978;BME280;49073;42.352;23.808;2023-12-20T15:49:16;94141.81;;;1.98;94.49
62978;BME280;49073;42.352;23.808;2023-12-20T15:52:19;94140.25;;;1.97;94.61
62978;BME280;49073;42.352;23.808;2023-12-20T15:55:19;94145.22;;;1.89;94.40
62978;BME280;49073;42.352;23.808;2023-12-20T15:58:20;94147.38;;;1.70;95.57
62978;BME280;49073;42.352;23.808;2023-12-20T16:01:20;94143.19;;;1.69;95.14